createdAt,value
2022-10-18T00:00:21.704Z,101874.03
2022-10-18T00:02:48.901Z,101872.75
2022-10-18T00:05:16.227Z,101875.00
2022-10-18T00:07:43.417Z,101879.19
2022-10-18T00:10:10.850Z,101889.13
2022-10-18T00:12:38.665Z,101888.81
2022-10-18T00:15:07.536Z,101887.63
2022-10-18T00:17:38.686Z,101896.72
2022-10-18T00:20:06.712Z,101887.84
2022-10-18T00:22:36.312Z,101904.16
2022-10-18T00:25:04.054Z,101911.88
2022-10-18T00:27:32.283Z,101913.50
2022-10-18T00:29:59.570Z,101901.53
2022-10-18T00:32:27.045Z,101911.06
2022-10-18T00:34:54.426Z,101909.69
2022-10-18T00:37:21.616Z,101904.72
2022-10-18T00:39:48.934Z,101907.34
2022-10-18T00:42:17.757Z,101902.25
2022-10-18T00:44:44.968Z,101905.13
2022-10-18T00:47:14.239Z,101909.72
2022-10-18T00:49:48.406Z,101900.88
2022-10-18T00:52:19.196Z,101902.50
2022-10-18T00:54:47.369Z,101917.97
2022-10-18T00:57:14.592Z,101913.28
2022-10-18T00:59:42.877Z,101915.19
2022-10-18T01:02:10.662Z,101917.19
2022-10-18T01:04:38.046Z,101926.91
2022-10-18T01:07:18.276Z,101926.63
2022-10-18T01:10:00.683Z,101920.59
2022-10-18T01:12:52.757Z,101918.94
2022-10-18T01:15:28.099Z,101920.78
2022-10-18T01:17:55.221Z,101920.59
2022-10-18T01:20:50.027Z,101930.00
2022-10-18T01:23:32.557Z,101918.41
2022-10-18T01:26:37.211Z,101908.00
2022-10-18T01:29:13.497Z,101920.53
2022-10-18T01:32:07.783Z,101922.50
2022-10-18T01:34:36.737Z,101920.34
2022-10-18T01:37:08.466Z,101922.44
2022-10-18T01:39:38.802Z,101923.84
2022-10-18T01:42:06.501Z,101924.00
2022-10-18T01:44:34.324Z,101930.19
2022-10-18T01:47:01.827Z,101930.19
2022-10-18T01:49:29.018Z,101918.09
2022-10-18T01:51:56.329Z,101919.63
2022-10-18T01:54:29.589Z,101913.38
2022-10-18T01:57:18.376Z,101919.38
2022-10-18T01:59:58.515Z,101916.31
2022-10-18T02:02:48.623Z,101918.53
2022-10-18T02:05:40.295Z,101904.41
2022-10-18T02:08:34.665Z,101903.44
2022-10-18T02:11:28.484Z,101906.31
2022-10-18T02:13:58.510Z,101914.75
2022-10-18T02:16:36.348Z,101912.41
2022-10-18T02:19:18.760Z,101917.31
2022-10-18T02:21:47.861Z,101914.25
2022-10-18T02:24:15.648Z,101924.38
2022-10-18T02:26:42.989Z,101912.66
2022-10-18T02:29:10.520Z,101911.63
2022-10-18T02:31:44.906Z,101904.41
2022-10-18T02:34:21.028Z,101909.44
2022-10-18T02:36:54.871Z,101917.25
2022-10-18T02:39:28.820Z,101921.25
2022-10-18T02:41:56.921Z,101921.53
2022-10-18T02:44:24.202Z,101940.09
2022-10-18T02:46:51.479Z,101939.44
2022-10-18T02:49:18.759Z,101940.44
2022-10-18T02:51:45.925Z,101944.56
2022-10-18T02:54:13.196Z,101940.22
2022-10-18T02:56:40.405Z,101941.69
2022-10-18T02:59:08.245Z,101937.91
2022-10-18T03:01:36.271Z,101942.81
2022-10-18T03:04:06.542Z,101944.34
2022-10-18T03:06:34.041Z,101944.84
2022-10-18T03:09:05.510Z,101942.44
2022-10-18T03:11:32.864Z,101950.81
2022-10-18T03:14:00.072Z,101944.06
2022-10-18T03:16:30.771Z,101948.41
2022-10-18T03:18:58.022Z,101950.06
2022-10-18T03:21:25.225Z,101963.50
2022-10-18T03:23:52.459Z,101966.84
2022-10-18T03:26:21.459Z,101969.97
2022-10-18T03:28:48.757Z,101962.09
2022-10-18T03:31:16.448Z,101962.72
2022-10-18T03:33:43.715Z,101969.78
2022-10-18T03:36:12.116Z,101973.19
2022-10-18T03:38:39.349Z,101964.66
2022-10-18T03:41:06.571Z,101962.25
2022-10-18T03:43:45.410Z,101970.84
2022-10-18T03:46:12.682Z,101976.59
2022-10-18T03:48:39.841Z,101968.59
2022-10-18T03:51:07.197Z,101973.59
2022-10-18T03:53:34.404Z,101974.91
2022-10-18T03:56:01.644Z,101981.00
2022-10-18T03:58:29.072Z,101971.94
2022-10-18T04:00:56.303Z,101978.78
2022-10-18T04:03:23.714Z,101978.78
2022-10-18T04:05:54.389Z,101987.97
2022-10-18T04:08:21.564Z,101988.09
2022-10-18T04:10:48.949Z,101990.09
2022-10-18T04:13:16.838Z,101996.31
2022-10-18T04:15:44.082Z,101993.38
2022-10-18T04:18:11.306Z,101998.50
2022-10-18T04:20:38.481Z,101995.84
2022-10-18T04:23:05.728Z,101994.25
2022-10-18T04:28:18.867Z,101991.50
2022-10-18T04:30:53.231Z,101994.75
2022-10-18T04:33:20.541Z,101990.72
2022-10-18T04:35:51.907Z,101992.19
2022-10-18T04:38:20.212Z,101994.03
2022-10-18T04:40:47.569Z,101987.94
2022-10-18T04:43:14.843Z,101994.00
2022-10-18T04:45:42.239Z,101994.94
2022-10-18T04:48:09.762Z,101997.28
2022-10-18T04:50:36.988Z,101999.94
2022-10-18T04:53:15.380Z,102001.91
2022-10-18T04:55:49.202Z,102004.22
2022-10-18T04:58:17.714Z,102004.84
2022-10-18T05:00:45.077Z,102009.44
2022-10-18T05:03:13.334Z,102006.69
2022-10-18T05:06:00.164Z,102016.16
2022-10-18T05:08:28.826Z,102015.19
2022-10-18T05:10:56.068Z,102009.97
2022-10-18T05:13:23.302Z,102012.09
2022-10-18T05:15:50.870Z,102009.63
2022-10-18T05:18:18.167Z,102006.72
2022-10-18T05:20:45.396Z,102010.44
2022-10-18T05:23:12.619Z,102006.53
2022-10-18T05:25:43.353Z,102010.63
2022-10-18T05:28:34.166Z,102005.84
2022-10-18T05:31:12.042Z,102015.22
2022-10-18T05:33:39.292Z,102010.44
2022-10-18T05:36:07.003Z,102004.72
2022-10-18T05:41:10.397Z,102009.44
2022-10-18T05:43:38.004Z,102013.22
2022-10-18T05:46:14.514Z,102016.47
2022-10-18T05:48:44.441Z,102016.81
2022-10-18T05:51:12.067Z,102014.38
2022-10-18T05:53:39.330Z,102014.84
2022-10-18T05:56:07.181Z,102024.72
2022-10-18T05:58:34.613Z,102021.53
2022-10-18T06:01:02.416Z,102023.38
2022-10-18T06:03:30.881Z,102028.28
2022-10-18T06:06:08.689Z,102026.34
2022-10-18T06:08:37.375Z,102033.97
2022-10-18T06:11:07.897Z,102031.22
2022-10-18T06:13:35.099Z,102037.97
2022-10-18T06:16:02.312Z,102033.84
2022-10-18T06:18:29.848Z,102042.38
2022-10-18T06:20:58.421Z,102041.72
2022-10-18T06:23:29.304Z,102045.47
2022-10-18T06:26:01.138Z,102043.66
2022-10-18T06:28:29.393Z,102047.75
2022-10-18T06:30:57.662Z,102049.84
2022-10-18T06:33:25.156Z,102045.28
2022-10-18T06:35:57.260Z,102050.69
2022-10-18T06:38:24.642Z,102042.78
2022-10-18T06:40:51.950Z,102047.28
2022-10-18T06:43:21.534Z,102049.06
2022-10-18T06:45:49.490Z,102056.75
2022-10-18T06:48:17.736Z,102054.13
2022-10-18T06:50:57.015Z,102063.16
2022-10-18T06:53:25.398Z,102068.91
2022-10-18T06:55:53.358Z,102063.13
2022-10-18T06:58:20.599Z,102067.88
2022-10-18T07:00:47.778Z,102065.56
2022-10-18T07:03:15.054Z,102075.59
2022-10-18T07:05:42.477Z,102068.69
2022-10-18T07:08:09.919Z,102070.53
2022-10-18T07:10:37.132Z,102068.19
2022-10-18T07:13:27.331Z,102071.59
2022-10-18T07:16:08.647Z,102072.53
2022-10-18T07:18:38.634Z,102078.22
2022-10-18T07:21:11.420Z,102076.03
2022-10-18T07:23:40.508Z,102082.47
2022-10-18T07:26:19.991Z,102086.69
2022-10-18T07:28:50.037Z,102090.59
2022-10-18T07:31:17.764Z,102086.75
2022-10-18T07:33:45.187Z,102096.94
2022-10-18T07:36:13.275Z,102092.72
2022-10-18T07:38:41.169Z,102087.69
2022-10-18T07:41:11.033Z,102096.88
2022-10-18T07:43:41.856Z,102096.22
2022-10-18T07:46:09.369Z,102105.53
2022-10-18T07:48:36.713Z,102107.09
2022-10-18T07:51:04.757Z,102104.53
2022-10-18T07:53:33.077Z,102116.59
2022-10-18T07:56:15.918Z,102127.53
2022-10-18T07:58:44.574Z,102120.53
2022-10-18T08:01:13.029Z,102129.38
2022-10-18T08:03:41.529Z,102133.94
2022-10-18T08:06:10.082Z,102128.69
2022-10-18T08:08:38.981Z,102126.09
2022-10-18T08:11:09.757Z,102138.66
2022-10-18T08:13:37.138Z,102131.28
2022-10-18T08:16:06.707Z,102137.34
2022-10-18T08:18:34.583Z,102135.91
2022-10-18T08:21:03.529Z,102137.94
2022-10-18T08:23:30.867Z,102151.09
2022-10-18T08:26:05.543Z,102154.47
2022-10-18T08:28:33.125Z,102149.06
2022-10-18T08:31:08.134Z,102152.59
2022-10-18T08:33:36.237Z,102158.13
2022-10-18T08:36:07.220Z,102154.31
2022-10-18T08:38:35.919Z,102164.00
2022-10-18T08:41:42.267Z,102168.13
2022-10-18T08:44:28.333Z,102161.53
2022-10-18T08:47:05.386Z,102155.31
2022-10-18T08:49:45.556Z,102153.94
2022-10-18T08:52:26.183Z,102156.16
2022-10-18T08:55:10.017Z,102150.69
2022-10-18T08:57:37.574Z,102135.56
2022-10-18T09:00:25.705Z,102144.94
2022-10-18T09:03:16.478Z,102142.63
2022-10-18T09:05:50.623Z,102144.75
2022-10-18T09:08:23.910Z,102147.69
2022-10-18T09:11:20.469Z,102142.16
2022-10-18T09:14:05.892Z,102152.34
2022-10-18T09:16:54.320Z,102153.50
2022-10-18T09:19:24.435Z,102151.41
2022-10-18T09:21:54.500Z,102147.50
2022-10-18T09:24:40.770Z,102150.44
2022-10-18T09:27:17.334Z,102149.88
2022-10-18T09:30:09.182Z,102148.81
2022-10-18T09:32:45.046Z,102142.66
2022-10-18T09:35:14.182Z,102144.34
2022-10-18T09:37:42.247Z,102140.84
2022-10-18T09:40:19.908Z,102137.66
2022-10-18T09:43:11.830Z,102156.28
2022-10-18T09:45:42.101Z,102143.88
2022-10-18T09:48:28.456Z,102144.72
2022-10-18T09:51:21.836Z,102159.72
2022-10-18T09:53:51.956Z,102160.41
2022-10-18T09:56:24.958Z,102157.97
2022-10-18T09:58:52.505Z,102158.78
2022-10-18T10:01:39.910Z,102158.22
2022-10-18T10:04:07.130Z,102157.53
2022-10-18T10:06:34.684Z,102163.25
2022-10-18T10:09:07.931Z,102157.41
2022-10-18T10:11:40.387Z,102160.22
2022-10-18T10:17:21.824Z,102153.09
2022-10-18T10:20:20.736Z,102145.00
2022-10-18T10:22:50.233Z,102156.94
2022-10-18T10:25:21.612Z,102153.88
2022-10-18T10:27:49.183Z,102155.81
2022-10-18T10:30:27.410Z,102153.69
2022-10-18T10:32:55.959Z,102158.66
2022-10-18T10:35:58.873Z,102157.03
2022-10-18T10:38:28.883Z,102152.75
2022-10-18T10:40:56.930Z,102145.81
2022-10-18T10:43:38.764Z,102151.63
2022-10-18T10:46:13.377Z,102143.97
2022-10-18T10:49:04.217Z,102139.81
2022-10-18T10:51:40.383Z,102149.78
2022-10-18T10:54:19.878Z,102146.34
2022-10-18T10:57:12.528Z,102149.78
2022-10-18T11:00:00.870Z,102139.59
2022-10-18T11:02:34.026Z,102142.56
2022-10-18T11:05:29.177Z,102140.00
2022-10-18T11:08:02.429Z,102137.78
2022-10-18T11:10:32.408Z,102133.41
2022-10-18T11:13:25.004Z,102148.97
2022-10-18T11:16:00.605Z,102135.16
2022-10-18T11:18:33.904Z,102134.66
2022-10-18T11:21:17.339Z,102131.88
2022-10-18T11:23:45.820Z,102134.22
2022-10-18T11:26:13.012Z,102129.38
2022-10-18T11:29:11.473Z,102124.66
2022-10-18T11:31:50.863Z,102126.84
2022-10-18T11:34:57.397Z,102123.03
2022-10-18T11:37:46.343Z,102120.09
2022-10-18T11:40:51.012Z,102113.56
2022-10-18T11:44:00.564Z,102109.25
2022-10-18T11:46:37.720Z,102113.13
2022-10-18T11:49:33.278Z,102114.78
2022-10-18T11:52:38.131Z,102118.72
2022-10-18T11:55:16.807Z,102106.38
2022-10-18T11:57:53.163Z,102100.66
2022-10-18T12:00:51.189Z,102093.34
2022-10-18T12:03:24.082Z,102084.81
2022-10-18T12:05:53.073Z,102091.72
2022-10-18T12:08:39.439Z,102080.19
2022-10-18T12:11:13.803Z,102076.56
2022-10-18T12:13:54.232Z,102064.28
2022-10-18T12:16:39.231Z,102060.06
2022-10-18T12:19:25.215Z,102059.16
2022-10-18T12:21:56.709Z,102051.47
2022-10-18T12:24:28.153Z,102053.56
2022-10-18T12:26:59.314Z,102050.53
2022-10-18T12:29:54.729Z,102055.31
2022-10-18T12:32:26.614Z,102048.31
2022-10-18T12:35:13.217Z,102053.44
2022-10-18T12:38:19.730Z,102054.16
2022-10-18T12:40:49.877Z,102050.53
2022-10-18T12:43:18.048Z,102045.88
2022-10-18T12:45:51.519Z,102047.97
2022-10-18T12:48:34.056Z,102042.34
2022-10-18T12:51:18.896Z,102044.41
2022-10-18T12:53:48.449Z,102044.88
2022-10-18T12:56:46.760Z,102044.78
2022-10-18T12:59:14.092Z,102042.34
2022-10-18T13:01:50.658Z,102037.41
2022-10-18T13:04:27.130Z,102037.50
2022-10-18T13:07:33.572Z,102043.44
2022-10-18T13:10:10.085Z,102037.09
2022-10-18T13:12:49.799Z,102041.22
2022-10-18T13:15:39.740Z,102035.16
2022-10-18T13:18:26.832Z,102041.78
2022-10-18T13:21:10.247Z,102037.94
2022-10-18T13:23:59.884Z,102036.19
2022-10-18T13:26:39.783Z,102033.25
2022-10-18T13:29:16.430Z,102037.84
2022-10-18T13:31:48.076Z,102029.88
2022-10-18T13:34:22.495Z,102029.19
2022-10-18T13:37:06.704Z,102027.78
2022-10-18T13:39:33.984Z,102028.13
2022-10-18T13:42:01.138Z,102027.75
2022-10-18T13:44:37.438Z,102030.78
2022-10-18T13:47:04.604Z,102037.94
2022-10-18T13:50:00.222Z,102024.63
2022-10-18T13:52:46.204Z,102029.31
2022-10-18T13:55:52.035Z,102024.63
2022-10-18T13:59:06.160Z,102032.13
2022-10-18T14:02:04.476Z,102019.84
2022-10-18T14:04:34.418Z,102019.16
2022-10-18T14:07:03.751Z,102024.63
2022-10-18T14:09:52.436Z,102027.19
2022-10-18T14:12:31.352Z,102029.06
2022-10-18T14:15:35.640Z,102024.63
2022-10-18T14:18:15.726Z,102024.06
2022-10-18T14:21:01.342Z,102032.56
2022-10-18T14:23:34.341Z,102035.03
2022-10-18T14:26:08.477Z,102027.31
2022-10-18T14:28:55.282Z,102024.75
2022-10-18T14:31:23.056Z,102021.47
2022-10-18T14:33:58.047Z,102018.19
2022-10-18T14:36:29.207Z,102019.38
2022-10-18T14:39:05.709Z,102012.38
2022-10-18T14:41:35.215Z,102018.13
2022-10-18T14:44:14.843Z,102022.41
2022-10-18T14:46:43.849Z,102022.06
2022-10-18T14:49:12.705Z,102022.53
2022-10-18T14:51:42.909Z,102010.16
2022-10-18T14:54:16.635Z,102011.44
2022-10-18T14:56:44.315Z,102008.66
2022-10-18T14:59:19.986Z,102006.75
2022-10-18T15:02:17.130Z,102010.41
2022-10-18T15:04:45.654Z,102003.88
2022-10-18T15:07:14.975Z,102008.19
2022-10-18T15:09:42.583Z,102006.88
2022-10-18T15:12:13.166Z,102010.00
2022-10-18T15:14:41.414Z,102011.41
2022-10-18T15:17:15.177Z,102003.97
2022-10-18T15:20:00.465Z,102005.13
2022-10-18T15:22:32.578Z,102004.00
2022-10-18T15:25:16.231Z,102001.66
2022-10-18T15:27:48.603Z,101995.63
2022-10-18T15:30:43.012Z,101999.28
2022-10-18T15:33:21.187Z,101993.59
2022-10-18T15:35:48.637Z,101988.94
2022-10-18T15:38:37.347Z,101984.13
2022-10-18T15:41:36.599Z,101985.31
2022-10-18T15:44:28.409Z,101981.22
2022-10-18T15:47:09.960Z,101980.53
2022-10-18T15:49:46.327Z,101979.72
2022-10-18T15:52:37.472Z,101986.63
2022-10-18T15:55:30.576Z,101979.00
2022-10-18T15:58:05.027Z,101983.69
2022-10-18T16:00:32.667Z,101971.19
2022-10-18T16:02:59.856Z,101976.66
2022-10-18T16:05:27.279Z,101977.25
2022-10-18T16:07:54.807Z,101967.47
2022-10-18T16:10:22.129Z,101970.28
2022-10-18T16:12:49.357Z,101974.59
2022-10-18T16:15:16.712Z,101964.44
2022-10-18T16:17:43.912Z,101964.47
2022-10-18T16:20:22.965Z,101968.03
2022-10-18T16:22:50.634Z,101967.81
2022-10-18T16:25:17.991Z,101969.31
2022-10-18T16:27:45.544Z,101967.59
2022-10-18T16:30:15.141Z,101972.00
2022-10-18T16:32:42.508Z,101965.94
2022-10-18T16:35:10.812Z,101966.75
2022-10-18T16:37:39.564Z,101956.19
2022-10-18T16:40:21.069Z,101944.72
2022-10-18T16:42:48.379Z,101947.63
2022-10-18T16:45:15.616Z,101947.63
2022-10-18T16:47:42.853Z,101957.44
2022-10-18T16:50:16.417Z,101951.69
2022-10-18T16:52:43.739Z,101948.94
2022-10-18T16:55:17.183Z,101951.13
2022-10-18T16:57:44.434Z,101948.22
2022-10-18T17:00:22.340Z,101950.31
2022-10-18T17:02:50.194Z,101949.16
2022-10-18T17:05:18.586Z,101955.13
2022-10-18T17:07:46.845Z,101957.75
2022-10-18T17:10:16.443Z,101958.25
2022-10-18T17:12:43.837Z,101962.53
2022-10-18T17:15:12.114Z,101968.50
2022-10-18T17:17:39.500Z,101973.00
2022-10-18T17:20:08.020Z,101964.59
2022-10-18T17:22:35.428Z,101979.00
2022-10-18T17:25:02.657Z,101980.28
2022-10-18T17:27:30.249Z,101986.84
2022-10-18T17:29:57.633Z,101980.31
2022-10-18T17:32:24.907Z,101990.00
2022-10-18T17:34:52.231Z,101992.94
2022-10-18T17:37:19.526Z,101992.34
2022-10-18T17:39:46.888Z,101999.88
2022-10-18T17:42:14.145Z,102001.84
2022-10-18T17:44:43.159Z,101999.94
2022-10-18T17:47:10.512Z,102010.88
2022-10-18T17:49:37.763Z,101999.97
2022-10-18T17:52:07.044Z,102004.69
2022-10-18T17:54:34.628Z,102012.59
2022-10-18T17:57:01.838Z,102013.78
2022-10-18T17:59:29.075Z,102016.81
2022-10-18T18:01:56.451Z,102019.06
2022-10-18T18:04:24.187Z,102015.06
2022-10-18T18:06:52.841Z,102008.22
2022-10-18T18:09:21.044Z,102012.16
2022-10-18T18:11:49.350Z,102008.22
2022-10-18T18:14:16.677Z,102007.84
2022-10-18T18:16:46.137Z,101995.25
2022-10-18T18:19:13.955Z,102006.91
2022-10-18T18:21:42.562Z,101991.84
2022-10-18T18:24:10.532Z,101991.50
2022-10-18T18:26:38.633Z,101984.84
2022-10-18T18:29:06.463Z,101972.81
2022-10-18T18:31:38.836Z,101983.63
2022-10-18T18:34:09.562Z,101988.34
2022-10-18T18:36:36.815Z,101984.28
2022-10-18T18:39:05.721Z,101987.72
2022-10-18T18:41:33.130Z,101978.31
2022-10-18T18:44:05.501Z,101971.28
2022-10-18T18:46:36.808Z,101968.16
2022-10-18T18:49:05.310Z,101961.41
2022-10-18T18:51:33.325Z,101958.75
2022-10-18T18:54:00.811Z,101961.75
2022-10-18T18:56:28.899Z,101956.84
2022-10-18T18:58:58.618Z,101962.09
2022-10-18T19:01:28.253Z,101953.72
2022-10-18T19:03:56.656Z,101971.84
2022-10-18T19:06:32.403Z,101969.00
2022-10-18T19:09:01.460Z,101971.72
2022-10-18T19:11:32.506Z,101967.75
2022-10-18T19:14:00.468Z,101962.44
2022-10-18T19:16:47.599Z,101961.88
2022-10-18T19:19:17.563Z,101954.00
2022-10-18T19:21:51.382Z,101950.50
2022-10-18T19:24:20.359Z,101943.38
2022-10-18T19:26:58.580Z,101948.19
2022-10-18T19:29:27.012Z,101934.03
2022-10-18T19:31:57.700Z,101938.53
2022-10-18T19:34:27.511Z,101941.34
2022-10-18T19:36:55.107Z,101949.16
2022-10-18T19:39:26.969Z,101945.63
2022-10-18T19:41:56.677Z,101947.66
2022-10-18T19:44:25.712Z,101944.78
2022-10-18T19:46:53.129Z,101947.31
2022-10-18T19:49:20.527Z,101942.97
2022-10-18T19:51:47.914Z,101937.38
2022-10-18T19:54:15.995Z,101946.59
2022-10-18T19:56:43.818Z,101944.31
2022-10-18T19:59:15.887Z,101944.03
2022-10-18T20:01:43.704Z,101950.22
2022-10-18T20:04:11.881Z,101949.97
2022-10-18T20:06:39.260Z,101953.56
2022-10-18T20:09:07.888Z,101934.59
2022-10-18T20:11:36.068Z,101936.06
2022-10-18T20:14:05.355Z,101940.09
2022-10-18T20:16:33.482Z,101946.38
2022-10-18T20:19:02.988Z,101929.63
2022-10-18T20:21:32.558Z,101939.13
2022-10-18T20:23:59.765Z,101929.41
2022-10-18T20:26:27.047Z,101944.56
2022-10-18T20:28:59.724Z,101944.09
2022-10-18T20:31:32.117Z,101936.06
2022-10-18T20:34:01.780Z,101941.66
2022-10-18T20:36:30.469Z,101940.22
2022-10-18T20:38:58.131Z,101939.75
2022-10-18T20:41:29.547Z,101933.03
2022-10-18T20:44:10.580Z,101929.19
2022-10-18T20:46:38.883Z,101940.84
2022-10-18T20:49:07.493Z,101923.56
2022-10-18T20:51:35.585Z,101941.03
2022-10-18T20:56:35.358Z,101937.44
2022-10-18T20:59:06.163Z,101932.19
2022-10-18T21:01:34.613Z,101937.50
2022-10-18T21:04:04.652Z,101928.41
2022-10-18T21:06:34.330Z,101924.38
2022-10-18T21:09:07.139Z,101924.59
2022-10-18T21:11:36.598Z,101923.91
2022-10-18T21:14:04.670Z,101923.41
2022-10-18T21:16:33.936Z,101931.38
2022-10-18T21:19:04.315Z,101924.72
2022-10-18T21:21:32.027Z,101927.88
2022-10-18T21:24:02.461Z,101938.69
2022-10-18T21:26:32.940Z,101934.56
2022-10-18T21:29:21.969Z,101931.47
2022-10-18T21:32:15.344Z,101926.84
2022-10-18T21:34:45.503Z,101921.31
2022-10-18T21:37:12.589Z,101915.81
2022-10-18T21:39:39.715Z,101921.25
2022-10-18T21:42:09.622Z,101917.25
2022-10-18T21:44:37.754Z,101917.25
2022-10-18T21:47:04.986Z,101908.34
2022-10-18T21:49:35.108Z,101910.84
2022-10-18T21:52:06.597Z,101907.81
2022-10-18T21:54:33.846Z,101903.97
2022-10-18T21:57:06.752Z,101905.81
2022-10-18T21:59:34.099Z,101898.63
2022-10-18T22:02:02.930Z,101901.75
2022-10-18T22:04:35.679Z,101904.66
2022-10-18T22:07:04.172Z,101902.53
2022-10-18T22:09:31.923Z,101903.03
2022-10-18T22:11:59.277Z,101896.56
2022-10-18T22:14:26.498Z,101897.28
2022-10-18T22:16:53.987Z,101895.25
2022-10-18T22:19:21.353Z,101898.53
2022-10-18T22:21:48.595Z,101899.34
2022-10-18T22:24:16.034Z,101887.91
2022-10-18T22:26:45.259Z,101893.53
2022-10-18T22:29:18.704Z,101894.03
2022-10-18T22:31:52.043Z,101883.50
2022-10-18T22:34:21.513Z,101883.25
2022-10-18T22:36:48.802Z,101887.84
2022-10-18T22:39:17.512Z,101885.75
2022-10-18T22:41:45.031Z,101880.47
2022-10-18T22:44:25.055Z,101871.84
2022-10-18T22:46:52.330Z,101860.91
2022-10-18T22:49:19.591Z,101867.38
2022-10-18T22:51:46.787Z,101861.88
2022-10-18T22:54:14.116Z,101861.09
2022-10-18T22:56:41.401Z,101852.09
2022-10-18T22:59:08.717Z,101839.63
2022-10-18T23:01:36.028Z,101826.13
2022-10-18T23:04:04.032Z,101823.97
2022-10-18T23:06:33.276Z,101814.91
2022-10-18T23:09:03.002Z,101822.16
2022-10-18T23:11:30.709Z,101819.50
2022-10-18T23:13:59.370Z,101820.78
2022-10-18T23:16:26.712Z,101823.53
2022-10-18T23:18:55.074Z,101829.44
2022-10-18T23:21:24.340Z,101829.28
2022-10-18T23:23:53.117Z,101821.53
2022-10-18T23:26:23.314Z,101815.47
2022-10-18T23:28:51.930Z,101810.50
2022-10-18T23:31:20.840Z,101814.28
2022-10-18T23:33:49.445Z,101810.03
2022-10-18T23:36:17.127Z,101806.56
2022-10-18T23:38:44.885Z,101810.19
2022-10-18T23:41:13.953Z,101796.25
2022-10-18T23:43:41.636Z,101794.34
2022-10-18T23:46:09.584Z,101796.84
2022-10-18T23:48:36.867Z,101797.44
2022-10-18T23:51:04.724Z,101809.69
2022-10-18T23:53:32.138Z,101804.22
2022-10-18T23:56:02.358Z,101802.69
2022-10-18T23:58:30.450Z,101808.72
